CYMX

Montreal International (Mirabel) Airport

Montréal, Quebec, Canada
METAR CYMX 222100Z 32007KT 260V360 45SM SKC 14/M11 A3036 RMK SLP285
Observed Flight Rules
Apr-22 @ 21:00 UTC (54 minutes ago) Visual Flight Rules
Wind Visibility Clouds
320° at 7 knots 45 miles
  • Clear skies
Temperatures Readings
Current 14°C / 57°F
Dewpoint -11°C / 12°F
Humidity 17%
Altimeter 30.36" Hg
Pressure 1028.5 hPa
Elevation 82
METAR CYMX 222100Z 32007KT 260V360 45SM SKC 14/M11 A3036 RMK SLP285
Observed Flight Rules
Apr-22 @ 21:00 UTC
(54 minutes ago)
VFR
Wind Visibility
320° at 7 knots 45 miles
Clouds
  • Clear skies
Temperature Dewpoint
14°C / 57°F -11°C / 12°F
Humidity Altimeter Pressure
17% 30.36" Hg 1028.5 hPa